Time;durP1;ratioP1;P1;durP2;ratioP2;P2;SDS_P1;SDS_P2;PMS_P1;PMS_P2;Temp;Humidity;BMP_temperature;BMP_pressure;BME280_temperature;BME280_humidity;BME280_pressure;Samples;Min_cycle;Max_cycle;Signal;HPM_P1;HPM_P2
2023/09/07 00:00:20;;;;;;;4.32;1.35;;;;;;;22.68;69.51;100143.94;4956509;28;20134;-91
2023/09/07 00:02:46;;;;;;;2.25;1.45;;;;;;;22.66;69.18;100124.31;4956300;28;20047;-91
2023/09/07 00:05:13;;;;;;;2.10;1.55;;;;;;;22.26;68.61;100102.41;4973322;28;20034;-90
2023/09/07 00:07:38;;;;;;;4.05;1.75;;;;;;;22.79;67.88;100154.06;4973766;28;20066;-90
2023/09/07 00:10:04;;;;;;;1.50;1.40;;;;;;;22.75;67.46;100136.38;4973160;28;20513;-90
2023/09/07 00:12:30;;;;;;;1.85;1.35;;;;;;;22.68;67.58;100157.38;4973558;28;20121;-91
2023/09/07 00:14:57;;;;;;;4.30;1.88;;;;;;;22.45;67.50;100118.38;4973429;28;20113;-92
2023/09/07 00:17:24;;;;;;;1.17;0.70;;;;;;;22.18;67.58;100100.16;4973223;28;20058;-92
2023/09/07 00:19:50;;;;;;;2.10;1.48;;;;;;;22.44;67.16;100143.50;4973333;28;20031;-92
2023/09/07 00:22:16;;;;;;;3.70;2.08;;;;;;;22.41;67.66;100147.22;4973546;28;20066;-91
2023/09/07 00:24:42;;;;;;;3.22;1.95;;;;;;;22.57;67.11;100154.41;4973176;28;20027;-93
2023/09/07 00:27:08;;;;;;;2.33;1.98;;;;;;;22.51;67.27;100151.13;4973751;28;20843;-92
2023/09/07 00:29:35;;;;;;;1.75;1.13;;;;;;;22.15;67.11;100106.59;4974053;28;20046;-93
2023/09/07 00:32:01;;;;;;;2.88;1.95;;;;;;;22.62;66.45;100157.72;4956188;28;20185;-92
2023/09/07 00:34:27;;;;;;;5.53;1.58;;;;;;;22.27;66.84;100126.50;4956475;28;20409;-93
2023/09/07 00:36:52;;;;;;;7.82;1.63;;;;;;;22.34;66.62;100119.84;4956045;28;20029;-93
2023/09/07 00:39:18;;;;;;;2.15;1.48;;;;;;;22.41;65.66;100106.91;4972861;28;20118;-93
2023/09/07 00:41:43;;;;;;;2.53;1.45;;;;;;;22.46;65.09;100126.34;4973572;28;20493;-93
2023/09/07 00:44:09;;;;;;;1.45;1.25;;;;;;;22.42;65.20;100135.53;4974447;28;20039;-94
2023/09/07 00:46:35;;;;;;;2.25;1.40;;;;;;;22.26;65.12;100114.03;4974182;28;20081;-94
2023/09/07 00:49:01;;;;;;;2.30;1.08;;;;;;;22.32;65.12;100102.06;4974394;28;20026;-94
2023/09/07 00:51:26;;;;;;;1.80;1.10;;;;;;;22.37;64.80;100124.19;4955880;28;20089;-92
2023/09/07 00:53:53;;;;;;;5.90;2.78;;;;;;;22.12;64.70;100101.38;4972800;28;20023;-92
2023/09/07 00:56:19;;;;;;;2.90;1.50;;;;;;;22.16;64.99;100110.13;4972525;28;20037;-92
2023/09/07 00:58:44;;;;;;;1.63;1.45;;;;;;;22.35;64.98;100140.41;4955507;28;20117;-93
2023/09/07 01:01:10;;;;;;;2.03;1.42;;;;;;;22.11;65.12;100094.25;4955491;28;20031;-93
2023/09/07 01:03:36;;;;;;;2.47;1.60;;;;;;;22.28;65.05;100111.25;4972747;28;20034;-95
2023/09/07 01:06:15;;;;;;;1.60;1.02;;;;;;;22.23;65.00;100099.88;4955494;28;20038;-96
2023/09/07 01:08:51;;;;;;;1.25;1.05;;;;;;;22.62;65.31;100147.84;4955778;28;20412;-90
2023/09/07 01:11:20;;;;;;;3.88;2.00;;;;;;;22.32;65.13;100094.00;4972592;28;20038;-92
2023/09/07 01:13:45;;;;;;;1.65;0.98;;;;;;;22.27;65.51;100090.72;4954516;28;20089;-91
2023/09/07 01:16:13;;;;;;;2.88;1.42;;;;;;;22.28;65.30;100081.69;4972004;28;20031;-91
2023/09/07 01:18:42;;;;;;;2.08;1.70;;;;;;;22.80;65.06;100148.59;4954500;28;20049;-91
2023/09/07 01:21:10;;;;;;;1.45;1.10;;;;;;;22.49;65.42;100122.59;4971855;28;20513;-93
2023/09/07 01:23:37;;;;;;;2.60;1.83;;;;;;;22.57;65.30;100092.59;4939135;28;20039;-92
2023/09/07 01:26:05;;;;;;;3.65;1.98;;;;;;;22.63;65.33;100119.13;4971858;28;20089;-91
2023/09/07 01:28:32;;;;;;;3.40;2.15;;;;;;;22.35;65.81;100088.47;4972017;28;20093;-91
2023/09/07 01:30:58;;;;;;;6.15;2.13;;;;;;;22.49;66.21;100123.50;4971670;28;20124;-91
2023/09/07 01:33:23;;;;;;;1.55;0.85;;;;;;;22.23;66.23;100099.88;4971762;28;20062;-92
2023/09/07 01:35:49;;;;;;;1.83;1.27;;;;;;;22.42;66.19;100114.03;4971652;28;20034;-90
2023/09/07 01:38:14;;;;;;;5.05;2.45;;;;;;;22.32;65.83;100083.25;4971394;28;20094;-91
2023/09/07 01:40:40;;;;;;;3.22;1.40;;;;;;;22.41;66.02;100101.53;4971428;28;20035;-91
2023/09/07 01:43:05;;;;;;;2.13;1.60;;;;;;;22.17;65.91;100077.78;4971774;28;20035;-89
2023/09/07 01:45:30;;;;;;;3.28;1.65;;;;;;;22.21;66.06;100086.53;4971474;28;20031;-89
2023/09/07 01:47:59;;;;;;;0.80;0.80;;;;;;;22.38;66.91;100130.44;4971653;28;20027;-87
2023/09/07 01:50:25;;;;;;;2.25;1.70;;;;;;;22.26;67.43;100140.00;4971798;28;20030;-89
2023/09/07 01:52:51;;;;;;;1.65;1.15;;;;;;;21.96;67.40;100093.28;4972743;28;20114;-92
2023/09/07 01:55:22;;;;;;;4.35;1.90;;;;;;;22.35;67.07;100143.09;4973100;28;20541;-92
2023/09/07 01:57:55;;;;;;;4.75;1.50;;;;;;;21.92;67.48;100104.31;4972845;28;20203;-91
2023/09/07 02:03:45;;;;;;;1.73;1.23;;;;;;;21.79;67.44;100090.69;4976671;28;20045;-91
2023/09/07 02:09:32;;;;;;;2.33;1.48;;;;;;;21.75;67.49;100107.91;4976116;28;20108;-89
2023/09/07 02:11:57;;;;;;;1.52;1.23;;;;;;;21.93;67.28;100133.75;4975498;28;20466;-89
2023/09/07 02:14:23;;;;;;;3.08;1.50;;;;;;;21.79;67.06;100123.78;4975322;28;20541;-89
2023/09/07 02:16:48;;;;;;;2.58;1.63;;;;;;;21.63;66.64;100088.84;4975830;28;20045;-89
2023/09/07 02:19:14;;;;;;;1.67;1.02;;;;;;;21.64;67.20;100116.56;4975132;28;20093;-90
2023/09/07 02:21:39;;;;;;;5.55;2.72;;;;;;;21.61;67.68;100149.81;4975553;28;20512;-89
2023/09/07 02:24:06;;;;;;;1.65;1.27;;;;;;;21.45;67.73;100130.94;4975287;28;20057;-88
2023/09/07 02:26:32;;;;;;;4.68;1.85;;;;;;;21.11;68.54;100105.03;4975500;28;20023;-88
2023/09/07 02:28:57;;;;;;;4.35;1.73;;;;;;;21.22;69.15;100137.50;4975626;28;20126;-89
2023/09/07 02:31:23;;;;;;;2.65;1.35;;;;;;;21.28;69.11;100133.66;4975802;28;20054;-88
2023/09/07 02:33:48;;;;;;;3.22;2.17;;;;;;;21.13;68.75;100095.06;4975150;28;21061;-88
2023/09/07 02:36:14;;;;;;;1.48;1.38;;;;;;;21.41;68.89;100150.84;4975714;28;20031;-88
2023/09/07 02:38:39;;;;;;;1.88;1.30;;;;;;;21.25;68.60;100121.25;4975297;28;20043;-88
2023/09/07 02:41:06;;;;;;;2.42;1.67;;;;;;;21.20;68.58;100125.16;4974920;28;20062;-88
2023/09/07 02:43:31;;;;;;;2.70;1.27;;;;;;;21.24;68.75;100124.91;4975369;28;20034;-88
2023/09/07 02:45:57;;;;;;;3.75;2.28;;;;;;;21.07;68.63;100100.78;4975213;28;20035;-88
2023/09/07 02:48:22;;;;;;;0.88;0.77;;;;;;;21.36;68.43;100127.88;4975370;28;20023;-88
2023/09/07 02:51:00;;;;;;;3.25;2.42;;;;;;;21.29;68.65;100127.34;4957560;28;20477;-87
2023/09/07 02:53:25;;;;;;;3.42;1.75;;;;;;;21.34;68.92;100148.56;4957331;28;20417;-87
2023/09/07 02:55:51;;;;;;;4.30;2.17;;;;;;;20.90;69.32;100105.19;4974948;28;20030;-88
2023/09/07 02:58:16;;;;;;;3.00;1.90;;;;;;;20.97;69.34;100097.69;4974822;28;20054;-87
2023/09/07 03:00:44;;;;;;;3.30;1.90;;;;;;;20.97;69.45;100105.75;4957164;28;20034;-87
2023/09/07 03:03:10;;;;;;;2.97;1.98;;;;;;;20.98;69.19;100101.28;4974522;28;20513;-89
2023/09/07 03:05:35;;;;;;;2.50;2.20;;;;;;;21.03;69.12;100104.56;4974855;28;20026;-89
2023/09/07 03:08:01;;;;;;;2.15;1.50;;;;;;;21.13;69.39;100139.81;4974606;28;20041;-89
2023/09/07 03:10:27;;;;;;;2.22;1.67;;;;;;;20.80;69.84;100128.06;4974641;28;20134;-89
2023/09/07 03:12:54;;;;;;;2.95;1.98;;;;;;;20.56;69.78;100090.81;4974408;28;20054;-89
2023/09/07 03:15:20;;;;;;;2.00;1.35;;;;;;;20.86;69.28;100125.06;4974816;28;20045;-89
2023/09/07 03:17:46;;;;;;;2.70;1.48;;;;;;;20.76;69.07;100099.69;4974421;28;20035;-89
2023/09/07 03:20:16;;;;;;;3.50;2.00;;;;;;;20.74;68.94;100093.53;4974483;28;20023;-89
2023/09/07 03:22:43;;;;;;;1.48;1.23;;;;;;;20.68;69.28;100096.50;4974395;28;20030;-89
2023/09/07 03:25:10;;;;;;;1.95;1.55;;;;;;;21.03;69.39;100150.16;4974702;28;20453;-89
2023/09/07 03:27:36;;;;;;;3.47;1.88;;;;;;;20.98;69.24;100131.63;4974068;28;20035;-89
2023/09/07 03:30:03;;;;;;;2.55;2.13;;;;;;;20.97;69.54;100137.91;4974515;28;20030;-89
2023/09/07 03:32:32;;;;;;;3.10;1.80;;;;;;;21.01;69.59;100147.56;4974329;28;20062;-89
2023/09/07 03:35:02;;;;;;;2.63;1.20;;;;;;;20.79;69.60;100126.34;4974216;28;20122;-89
2023/09/07 03:37:28;;;;;;;2.92;1.48;;;;;;;21.02;69.35;100146.63;4974184;28;20042;-88
2023/09/07 03:39:55;;;;;;;2.75;1.50;;;;;;;21.04;68.98;100136.66;4973433;28;20473;-89
2023/09/07 03:42:20;;;;;;;2.88;1.90;;;;;;;20.63;70.24;100128.88;4974394;28;20054;-88
2023/09/07 03:44:46;;;;;;;4.15;2.78;;;;;;;20.30;72.14;100129.59;4973889;28;20493;-88
2023/09/07 03:47:14;;;;;;;9.73;2.55;;;;;;;20.66;71.81;100176.13;4973713;28;20031;-89
2023/09/07 03:49:39;;;;;;;2.08;1.48;;;;;;;20.55;72.39;100164.09;4973677;28;20066;-88
2023/09/07 03:52:05;;;;;;;3.28;2.08;;;;;;;20.52;72.37;100148.16;4973762;28;20120;-89
2023/09/07 03:54:31;;;;;;;1.75;1.40;;;;;;;20.67;72.30;100184.09;4973655;28;20033;-91
2023/09/07 03:56:58;;;;;;;2.78;2.00;;;;;;;20.50;72.73;100166.13;4987264;28;20118;-91
2023/09/07 03:59:27;;;;;;;3.10;2.17;;;;;;;20.62;72.22;100158.44;4992559;28;20117;-91
2023/09/07 04:01:53;;;;;;;2.38;1.77;;;;;;;20.72;72.06;100162.44;4992732;28;20034;-91
2023/09/07 04:04:18;;;;;;;2.90;2.47;;;;;;;20.77;71.92;100173.78;4992821;28;20030;-91
2023/09/07 04:06:47;;;;;;;2.90;2.50;;;;;;;20.85;71.50;100163.56;4992656;28;20082;-91
2023/09/07 04:09:14;;;;;;;3.60;2.80;;;;;;;20.61;72.00;100140.63;4992583;28;20044;-91
2023/09/07 04:11:39;;;;;;;1.58;0.95;;;;;;;20.91;72.25;100190.06;4992404;28;20030;-90
2023/09/07 04:14:05;;;;;;;2.83;2.40;;;;;;;20.64;72.68;100140.47;4974664;28;20397;-91
2023/09/07 04:16:31;;;;;;;2.55;1.55;;;;;;;20.79;72.28;100160.31;4974990;28;20030;-90
2023/09/07 04:18:56;;;;;;;3.17;2.30;;;;;;;20.75;72.23;100159.59;4971692;28;20180;-89
2023/09/07 04:21:22;;;;;;;3.78;2.05;;;;;;;20.67;72.82;100156.44;4986046;28;20034;-91
2023/09/07 04:23:47;;;;;;;3.70;2.30;;;;;;;20.66;73.56;100150.19;4977447;28;20039;-87
2023/09/07 04:26:13;;;;;;;2.83;2.35;;;;;;;20.78;73.54;100156.75;4973057;28;20118;-90
2023/09/07 04:28:38;;;;;;;2.97;2.10;;;;;;;21.03;73.21;100188.56;4990735;28;20034;-90
2023/09/07 04:31:05;;;;;;;2.70;1.77;;;;;;;21.09;73.11;100198.97;4976963;28;20057;-91
2023/09/07 04:33:31;;;;;;;6.47;2.88;;;;;;;20.97;72.84;100156.69;4982151;28;20033;-91
2023/09/07 04:36:06;;;;;;;3.35;2.47;;;;;;;21.26;72.71;100190.06;4986774;28;20409;-88
2023/09/07 04:38:32;;;;;;;3.88;1.40;;;;;;;21.14;73.04;100165.69;4991629;28;20081;-89
2023/09/07 04:41:08;;;;;;;3.10;2.00;;;;;;;21.17;72.95;100165.53;4991945;28;20057;-89
2023/09/07 04:43:34;;;;;;;6.18;2.85;;;;;;;21.40;72.83;100184.00;4973589;28;20035;-88
2023/09/07 04:46:00;;;;;;;3.35;2.03;;;;;;;21.26;72.93;100176.66;4972958;28;20035;-90
2023/09/07 04:48:25;;;;;;;4.55;1.95;;;;;;;21.24;73.34;100172.31;4991856;28;20482;-89
2023/09/07 04:51:05;;;;;;;4.97;2.83;;;;;;;21.17;73.88;100154.81;4991597;28;20038;-89
2023/09/07 04:53:32;;;;;;;3.20;2.72;;;;;;;21.15;74.61;100173.66;4984463;28;20038;-88
2023/09/07 04:55:59;;;;;;;4.05;2.95;;;;;;;21.33;74.43;100174.50;4991687;28;20069;-90
2023/09/07 04:58:25;;;;;;;3.03;2.55;;;;;;;21.43;73.92;100174.91;4977105;28;20030;-87
2023/09/07 05:00:50;;;;;;;5.57;2.50;;;;;;;21.53;74.07;100191.44;4985826;28;20023;-88
2023/09/07 05:03:16;;;;;;;4.85;3.10;;;;;;;21.69;74.39;100216.53;4971663;28;20122;-89
2023/09/07 05:05:42;;;;;;;6.78;4.63;;;;;;;21.52;74.89;100173.56;4972316;28;20027;-91
2023/09/07 05:08:17;;;;;;;9.63;2.88;;;;;;;21.57;74.88;100183.13;4973313;28;20469;-93
2023/09/07 05:10:42;;;;;;;3.72;2.97;;;;;;;21.56;75.20;100181.38;4971709;28;20114;-93
2023/09/07 05:13:08;;;;;;;2.55;1.77;;;;;;;21.68;75.48;100197.81;4986888;28;20121;-92
2023/09/07 05:15:33;;;;;;;3.63;1.58;;;;;;;21.90;75.10;100211.81;4978495;28;20069;-92
2023/09/07 05:17:59;;;;;;;3.88;3.05;;;;;;;21.77;74.20;100181.22;4986840;28;20129;-93
2023/09/07 05:20:25;;;;;;;4.28;3.05;;;;;;;21.73;73.25;100160.84;4954212;28;20041;-91
2023/09/07 05:22:51;;;;;;;4.10;2.90;;;;;;;22.00;72.91;100214.88;4963095;28;20084;-91
2023/09/07 05:25:17;;;;;;;8.57;4.38;;;;;;;22.17;72.08;100196.00;4987525;28;20164;-87
2023/09/07 05:27:42;;;;;;;3.63;1.95;;;;;;;22.04;72.57;100164.53;4970816;28;20026;-89
2023/09/07 05:30:08;;;;;;;2.72;2.47;;;;;;;22.48;72.02;100191.63;4971121;28;20121;-88
2023/09/07 05:32:33;;;;;;;6.20;3.55;;;;;;;22.48;71.19;100217.66;4971130;28;20038;-86
2023/09/07 05:34:59;;;;;;;3.22;2.20;;;;;;;22.53;71.30;100212.88;4970850;28;20140;-86
2023/09/07 05:37:24;;;;;;;3.85;3.17;;;;;;;22.64;70.72;100198.81;4953021;28;20089;-86
2023/09/07 05:39:50;;;;;;;3.67;2.05;;;;;;;22.82;69.40;100191.53;4974946;28;20038;-86
2023/09/07 05:42:16;;;;;;;2.85;2.13;;;;;;;22.59;68.72;100153.38;4987882;28;20053;-86
2023/09/07 05:44:41;;;;;;;10.88;3.83;;;;;;;22.66;68.83;100170.03;4990071;28;20030;-86
2023/09/07 05:47:06;;;;;;;7.13;2.90;;;;;;;22.84;68.39;100182.41;4970952;28;20037;-87
2023/09/07 05:49:32;;;;;;;6.00;3.33;;;;;;;23.02;67.41;100156.25;4987415;28;20465;-86
2023/09/07 05:51:57;;;;;;;3.58;2.25;;;;;;;23.25;67.54;100178.25;4989066;28;20108;-87
2023/09/07 05:54:32;;;;;;;5.95;3.47;;;;;;;23.66;67.00;100182.94;4987619;28;20030;-87
2023/09/07 05:56:58;;;;;;;4.40;2.80;;;;;;;23.88;66.78;100165.47;4989035;28;20034;-86
2023/09/07 05:59:23;;;;;;;4.22;2.15;;;;;;;24.08;66.96;100200.09;4988923;28;20662;-87
2023/09/07 06:01:49;;;;;;;3.42;2.67;;;;;;;24.00;67.06;100177.28;4983689;28;20420;-87
2023/09/07 06:04:14;;;;;;;6.70;5.03;;;;;;;24.37;66.74;100209.97;4979996;28;20035;-87
2023/09/07 06:06:39;;;;;;;6.38;3.88;;;;;;;24.15;65.72;100151.22;4980328;28;20481;-88
2023/09/07 06:09:05;;;;;;;5.20;3.45;;;;;;;24.49;64.72;100187.63;4988485;28;20058;-88
2023/09/07 06:11:31;;;;;;;4.13;3.13;;;;;;;24.41;63.44;100179.16;4987927;28;20444;-89
2023/09/07 06:13:58;;;;;;;5.55;3.08;;;;;;;24.58;63.22;100170.00;4972075;28;20035;-88
2023/09/07 06:16:23;;;;;;;6.88;4.78;;;;;;;24.87;62.89;100168.06;4967980;28;20027;-88
2023/09/07 06:18:49;;;;;;;7.85;3.78;;;;;;;25.33;62.26;100185.69;4976116;28;20050;-87
2023/09/07 06:21:24;;;;;;;5.93;3.88;;;;;;;25.58;61.54;100175.88;4983763;28;20117;-89
2023/09/07 06:23:50;;;;;;;6.57;4.07;;;;;;;25.86;61.18;100210.78;4963210;28;20042;-88
2023/09/07 06:26:17;;;;;;;4.57;3.55;;;;;;;25.24;61.55;100167.38;4981518;28;20414;-89
2023/09/07 06:28:43;;;;;;;4.60;2.95;;;;;;;25.17;62.12;100175.03;4953089;28;20031;-87
2023/09/07 06:31:08;;;;;;;9.20;3.22;;;;;;;25.35;61.75;100198.09;4981554;28;20040;-88
2023/09/07 06:33:39;;;;;;;7.07;4.82;;;;;;;25.60;61.27;100200.97;4976217;28;20038;-90
2023/09/07 06:36:12;;;;;;;6.00;3.80;;;;;;;25.39;61.72;100158.25;4953567;28;20406;-88
2023/09/07 06:38:38;;;;;;;4.97;3.63;;;;;;;25.94;60.06;100223.75;4970322;28;20961;-89
2023/09/07 06:41:12;;;;;;;5.32;2.53;;;;;;;25.99;59.50;100175.66;4986907;28;20038;-90
2023/09/07 06:43:37;;;;;;;4.03;2.60;;;;;;;26.33;58.34;100184.03;4988584;28;20129;-89
2023/09/07 06:46:08;;;;;;;4.15;2.75;;;;;;;25.92;58.54;100167.09;4985333;28;20568;-90
2023/09/07 06:48:34;;;;;;;4.95;2.15;;;;;;;25.98;59.06;100190.16;4988510;28;20030;-90
2023/09/07 06:51:07;;;;;;;4.43;2.88;;;;;;;25.32;60.46;100155.13;4989495;28;20038;-90
2023/09/07 06:53:33;;;;;;;5.03;2.85;;;;;;;25.54;60.29;100204.94;4981148;28;20151;-91
2023/09/07 06:56:00;;;;;;;3.50;2.33;;;;;;;25.16;61.31;100197.59;4974056;28;20063;-91
2023/09/07 06:58:26;;;;;;;5.72;2.80;;;;;;;25.37;61.31;100231.25;4975833;28;20046;-91
2023/09/07 07:00:51;;;;;;;1.95;1.58;;;;;;;25.08;60.97;100203.50;4993701;28;20485;-91
2023/09/07 07:03:17;;;;;;;4.50;2.25;;;;;;;24.93;61.70;100175.75;4958472;28;20062;-90
2023/09/07 07:05:42;;;;;;;3.38;2.47;;;;;;;25.24;61.42;100197.06;4986900;28;20034;-90
2023/09/07 07:08:09;;;;;;;2.97;2.17;;;;;;;25.37;61.05;100176.41;4974396;28;20039;-90
2023/09/07 07:10:42;;;;;;;3.72;2.45;;;;;;;25.77;61.05;100197.94;4973631;28;20026;-90
2023/09/07 07:13:07;;;;;;;2.08;1.52;;;;;;;26.28;60.25;100224.06;4971065;28;20100;-90
2023/09/07 07:15:34;;;;;;;3.53;2.40;;;;;;;26.17;59.63;100181.59;4988717;28;20038;-90
2023/09/07 07:18:00;;;;;;;3.60;2.08;;;;;;;25.96;59.82;100162.34;4993011;28;20049;-90
2023/09/07 07:20:25;;;;;;;6.93;3.42;;;;;;;26.15;60.95;100186.25;4979933;28;20030;-90
2023/09/07 07:22:51;;;;;;;4.95;2.95;;;;;;;26.70;60.25;100186.75;4992965;28;20093;-90
2023/09/07 07:25:19;;;;;;;3.17;2.45;;;;;;;26.39;57.64;100177.31;4992600;28;20034;-91
2023/09/07 07:27:45;;;;;;;3.88;3.30;;;;;;;26.65;57.68;100193.44;4991477;28;20588;-89
2023/09/07 07:30:12;;;;;;;3.60;2.33;;;;;;;26.65;57.34;100204.25;4987312;28;20042;-90
2023/09/07 07:32:38;;;;;;;3.85;2.65;;;;;;;26.36;58.44;100188.34;4977605;28;20741;-90
2023/09/07 07:35:04;;;;;;;3.55;2.67;;;;;;;26.37;59.47;100222.50;4982919;28;20062;-88
2023/09/07 07:37:29;;;;;;;4.03;2.70;;;;;;;26.48;57.75;100203.69;4972139;28;20026;-89
2023/09/07 07:39:54;;;;;;;5.53;3.78;;;;;;;26.87;57.63;100207.13;4972451;28;20047;-88
2023/09/07 07:42:20;;;;;;;3.15;2.28;;;;;;;26.64;56.80;100214.22;4972871;28;20038;-89
2023/09/07 07:44:46;;;;;;;4.30;2.97;;;;;;;26.70;56.82;100231.88;4971587;28;20042;-89
2023/09/07 07:47:11;;;;;;;3.88;2.83;;;;;;;26.66;57.45;100214.16;4972066;28;20031;-89
2023/09/07 07:49:37;;;;;;;3.67;2.03;;;;;;;26.70;57.26;100188.59;4973378;28;20015;-88
2023/09/07 07:52:05;;;;;;;4.38;2.17;;;;;;;26.91;56.71;100226.69;4972522;28;20035;-88
2023/09/07 07:54:33;;;;;;;3.28;2.45;;;;;;;27.22;57.21;100248.75;4972772;28;20066;-88
2023/09/07 07:56:58;;;;;;;5.10;2.15;;;;;;;27.24;55.41;100241.38;4971521;28;20030;-89
2023/09/07 07:59:23;;;;;;;5.40;2.50;;;;;;;27.03;55.38;100230.34;4972876;28;20037;-88
2023/09/07 08:01:49;;;;;;;4.25;2.25;;;;;;;26.95;54.80;100187.59;4990318;28;20043;-88
2023/09/07 08:04:15;;;;;;;5.32;2.38;;;;;;;26.68;54.51;100185.13;4992087;28;20042;-88
2023/09/07 08:06:40;;;;;;;2.75;1.55;;;;;;;26.78;53.01;100210.53;4992537;28;20038;-88
2023/09/07 08:09:06;;;;;;;4.03;2.33;;;;;;;26.68;55.18;100204.06;4991964;28;20033;-89
2023/09/07 08:11:32;;;;;;;3.70;2.22;;;;;;;26.64;56.24;100184.47;4991652;28;20029;-89
2023/09/07 08:13:57;;;;;;;3.58;1.95;;;;;;;26.84;55.70;100195.69;4992188;28;20131;-88
2023/09/07 08:16:23;;;;;;;9.85;4.40;;;;;;;26.99;54.42;100237.84;4991859;28;20467;-89
2023/09/07 08:18:49;;;;;;;4.55;2.25;;;;;;;26.85;54.98;100178.44;4992078;28;20042;-89
2023/09/07 08:21:15;;;;;;;2.63;1.73;;;;;;;27.26;54.29;100204.22;4978745;28;20034;-89
2023/09/07 08:23:41;;;;;;;3.95;2.53;;;;;;;27.34;53.77;100190.97;4981452;28;20188;-88
2023/09/07 08:26:09;;;;;;;3.78;2.05;;;;;;;27.91;54.65;100223.59;4991283;28;20034;-88
2023/09/07 08:28:34;;;;;;;15.15;4.00;;;;;;;28.01;56.51;100214.63;4991212;28;20038;-86
2023/09/07 08:31:00;;;;;;;4.53;2.38;;;;;;;27.92;57.10;100203.66;4990834;28;20034;-87
2023/09/07 08:33:28;;;;;;;5.57;2.83;;;;;;;27.83;55.91;100207.94;4991227;28;20049;-89
2023/09/07 08:35:55;;;;;;;6.25;3.00;;;;;;;27.96;56.40;100230.41;4990738;28;20034;-89
2023/09/07 08:38:27;;;;;;;4.78;3.33;;;;;;;27.54;56.76;100186.69;4990900;28;20053;-90
2023/09/07 08:41:05;;;;;;;5.00;3.72;;;;;;;28.05;52.17;100196.25;4973095;28;20042;-88
2023/09/07 08:43:34;;;;;;;2.47;1.75;;;;;;;27.65;56.85;100210.25;4971965;28;20125;-90
2023/09/07 08:46:12;;;;;;;5.35;3.10;;;;;;;28.02;54.05;100200.09;4953730;28;20125;-93
2023/09/07 08:48:38;;;;;;;5.07;3.08;;;;;;;28.50;51.48;100188.09;4971456;28;20089;-90
2023/09/07 08:51:07;;;;;;;6.05;2.90;;;;;;;28.80;49.85;100196.56;4955395;28;20411;-93
2023/09/07 08:53:33;;;;;;;3.38;2.28;;;;;;;28.78;51.84;100212.09;4974218;28;20489;-96
2023/09/07 08:56:21;;;;;;;3.33;2.25;;;;;;;29.10;49.72;100221.13;4985051;28;20062;-96
2023/09/07 08:58:51;;;;;;;2.97;2.17;;;;;;;29.43;48.10;100208.41;4988470;28;20084;-96
2023/09/07 09:01:22;;;;;;;3.83;2.42;;;;;;;29.38;47.00;100140.03;4962417;28;20054;-95
2023/09/07 09:03:49;;;;;;;2.65;1.83;;;;;;;29.65;46.15;100180.22;4974279;28;20125;-95
2023/09/07 09:06:20;;;;;;;7.97;2.67;;;;;;;29.85;45.78;100187.66;4973985;28;20105;-95
2023/09/07 09:08:49;;;;;;;3.72;2.33;;;;;;;30.13;48.08;100196.94;4991193;28;20089;-94
2023/09/07 09:11:18;;;;;;;2.78;2.10;;;;;;;30.42;44.89;100167.13;4977118;28;20501;-96
2023/09/07 09:13:48;;;;;;;3.03;2.22;;;;;;;29.94;46.05;100163.22;4995978;28;20053;-96
2023/09/07 09:16:15;;;;;;;4.55;2.58;;;;;;;29.18;45.76;100132.69;4975518;28;20034;-94
2023/09/07 09:18:55;;;;;;;2.67;1.85;;;;;;;29.35;46.91;100147.56;4989124;28;20073;-95
2023/09/07 09:21:27;;;;;;;3.92;2.35;;;;;;;29.20;46.85;100133.47;4972883;28;20037;-93
2023/09/07 09:23:57;;;;;;;3.78;2.15;;;;;;;29.09;47.05;100134.38;4976318;28;20101;-94
2023/09/07 09:26:23;;;;;;;3.42;1.92;;;;;;;29.16;47.11;100145.56;4959449;28;20053;-95
2023/09/07 09:28:50;;;;;;;2.28;2.05;;;;;;;29.24;46.85;100165.66;4991108;28;20042;-95
2023/09/07 09:31:17;;;;;;;2.90;1.55;;;;;;;29.11;50.34;100168.53;4991638;28;20129;-95
2023/09/07 09:33:47;;;;;;;2.58;1.60;;;;;;;29.23;46.00;100150.34;4958193;28;20070;-92
2023/09/07 09:36:15;;;;;;;2.83;2.00;;;;;;;29.37;46.94;100141.00;4958896;28;20035;-92
2023/09/07 09:38:49;;;;;;;7.60;2.35;;;;;;;29.16;44.23;100121.09;4953994;28;20053;-91
2023/09/07 09:41:16;;;;;;;5.50;3.38;;;;;;;29.38;45.95;100145.47;4972558;28;20035;-94
2023/09/07 09:43:42;;;;;;;2.55;1.80;;;;;;;29.58;44.95;100141.00;4953749;28;20350;-95
2023/09/07 09:46:08;;;;;;;3.92;1.70;;;;;;;29.45;43.16;100091.44;4972116;28;20027;-92
2023/09/07 09:48:36;;;;;;;6.38;2.65;;;;;;;29.53;46.27;100156.81;4957340;28;20042;-92
2023/09/07 09:51:03;;;;;;;3.75;2.42;;;;;;;29.43;46.22;100132.31;4960536;28;20125;-94
2023/09/07 09:53:30;;;;;;;3.33;1.70;;;;;;;29.76;42.85;100134.91;4968224;28;20114;-95
2023/09/07 09:55:56;;;;;;;4.50;2.22;;;;;;;29.99;42.53;100116.59;4969573;28;20038;-93
2023/09/07 09:58:22;;;;;;;2.90;2.20;;;;;;;30.17;41.83;100120.34;4986670;28;20484;-96
2023/09/07 10:00:52;;;;;;;2.40;2.20;;;;;;;30.41;44.83;100134.63;4974917;28;20038;-91
2023/09/07 10:03:32;;;;;;;2.28;1.75;;;;;;;30.15;41.47;100133.25;4983671;28;20039;-94
2023/09/07 10:06:22;;;;;;;3.70;1.80;;;;;;;29.74;41.68;100088.84;4964727;28;20041;-89
2023/09/07 10:09:06;;;;;;;3.33;2.35;;;;;;;30.05;40.15;100135.06;4971101;28;20039;-93
2023/09/07 10:11:33;;;;;;;3.00;1.25;;;;;;;29.42;41.63;100108.84;4952940;28;20047;-92
2023/09/07 10:14:06;;;;;;;3.45;1.88;;;;;;;29.33;41.18;100098.78;4959754;28;20054;-94
2023/09/07 10:17:04;;;;;;;1.73;1.30;;;;;;;29.28;40.58;100114.66;4968434;28;20421;-96
2023/09/07 10:19:29;;;;;;;3.15;1.58;;;;;;;28.92;40.76;100084.22;4894306;29;20433;-90
2023/09/07 10:21:56;;;;;;;3.40;2.25;;;;;;;29.55;40.68;100137.66;4895904;29;20036;-92
2023/09/07 10:24:35;;;;;;;2.97;2.20;;;;;;;29.18;41.15;100064.78;4896588;29;20055;-93
2023/09/07 10:27:07;;;;;;;2.05;1.70;;;;;;;29.77;41.11;100115.75;4880612;29;20516;-95
2023/09/07 10:29:55;;;;;;;2.97;1.70;;;;;;;29.86;40.04;100097.81;4897178;29;20044;-93
2023/09/07 10:32:20;;;;;;;2.15;1.48;;;;;;;29.79;38.61;100081.13;4928214;29;20506;-92
2023/09/07 10:34:46;;;;;;;3.35;1.92;;;;;;;29.34;39.28;100095.09;4931730;29;20122;-87
2023/09/07 10:37:13;;;;;;;5.45;1.40;;;;;;;29.43;39.96;100085.28;4913683;29;20107;-94
2023/09/07 10:39:39;;;;;;;9.23;2.00;;;;;;;29.67;40.87;100090.38;4915823;29;20070;-90
2023/09/07 10:42:06;;;;;;;4.18;2.20;;;;;;;29.89;38.94;100074.91;4922057;29;20531;-90
2023/09/07 10:44:32;;;;;;;2.72;1.88;;;;;;;30.14;41.43;100076.25;4909205;29;20432;-88
2023/09/07 10:46:57;;;;;;;5.72;1.75;;;;;;;29.89;39.20;100074.91;4929764;29;20040;-89
2023/09/07 10:49:24;;;;;;;2.03;1.20;;;;;;;29.63;39.89;100088.94;4913131;29;20044;-88
2023/09/07 10:51:49;;;;;;;3.03;1.85;;;;;;;29.60;38.11;100081.91;4920826;29;20465;-90
2023/09/07 10:54:17;;;;;;;2.30;1.40;;;;;;;29.76;37.29;100073.25;4918699;29;20040;-93
2023/09/07 10:56:46;;;;;;;1.73;1.63;;;;;;;29.85;37.87;100081.63;4939279;28;20541;-95
2023/09/07 10:59:13;;;;;;;3.03;1.70;;;;;;;29.71;38.64;100077.41;4953505;28;20041;-94
2023/09/07 11:01:39;;;;;;;1.55;0.82;;;;;;;29.49;36.75;100014.09;4940348;28;20057;-93
2023/09/07 11:04:05;;;;;;;3.35;1.80;;;;;;;29.98;37.79;100077.66;4956869;28;20027;-90
2023/09/07 11:06:31;;;;;;;2.10;1.67;;;;;;;29.75;36.84;100071.53;4925742;29;20058;-96
2023/09/07 11:09:04;;;;;;;2.75;1.73;;;;;;;29.67;37.58;100056.91;4954079;28;20061;-94
2023/09/07 11:11:36;;;;;;;2.40;1.48;;;;;;;29.72;37.41;100090.84;4963045;28;20027;-91
2023/09/07 11:14:04;;;;;;;7.65;2.30;;;;;;;29.68;36.97;100045.06;4938801;29;20055;-94
2023/09/07 11:16:30;;;;;;;2.55;1.38;;;;;;;29.98;37.00;100057.75;4949260;28;20034;-95
2023/09/07 11:18:55;;;;;;;0.93;0.63;;;;;;;29.92;35.20;100028.41;4953622;28;20042;-91
2023/09/07 11:21:22;;;;;;;1.73;1.35;;;;;;;29.89;35.95;100039.56;4945284;28;20038;-93
2023/09/07 11:23:49;;;;;;;2.08;1.13;;;;;;;29.82;35.76;100047.41;4973878;28;20493;-93
2023/09/07 11:26:17;;;;;;;2.28;1.60;;;;;;;29.65;36.03;100019.84;4953775;28;20027;-94
2023/09/07 11:28:45;;;;;;;2.92;1.48;;;;;;;30.05;35.11;100053.47;4952110;29;20118;-95
2023/09/07 11:31:20;;;;;;;2.05;1.20;;;;;;;30.31;34.92;100042.91;4921365;29;20513;-92